To NAV CANADA Home Page Login to a new session Search on AWWS site Feedback and Comments Disclaimer Vers la page française équivalente Tips FAQ What's new on the site To the Forecasts and Observations / NOTAM section To "File a Flight Plan" website Publications and other links Update of the User's profile FIC Telephone Numbers My Weather Data Folder Route Weather Data Regional Weather Data Local Weather Data To the Forecasts and Observations / NOTAM section
Request Generated 06/26/2017 at 22:31:57 UTC . Weather information available at that time is displayed.

METAR/TAF

OTTAWA/MACDONALD-CARTIER INTL/ON    

METAR CYOW 262200Z 16007KT 15SM SCT065 BKN100 20/09 A2992 RMK CU3ACC3
SLP133 DENSITY ALT 1100FT=
METAR CYOW 262100Z 17009KT 15SM SCT065 BKN100 21/09 A2992 RMK CU3ACC3
SLP135 DENSITY ALT 1200FT=
METAR CYOW 262000Z VRB02KT 15SM SCT065 20/06 A2993 RMK CU4 SLP137
DENSITY ALT 1100FT=

TAF CYOW 262038Z 2621/2718 VRB03KT P6SM BKN060 TEMPO 2621/2704 4SM
-SHRA BR PROB30 2621/2703 VRB15G25KT 2SM TSRA BR BKN020 OVC040CB
FM270400 18006KT 3SM BR SCT006 BKN010
FM271000 20006KT P6SM SCT020 BKN060
FM271500 20010KT P6SM BKN030 OVC070
FM271700 22010KT P6SM -SHRA BKN050 PROB30 2717/2718 VRB15G25KT
2SM TSRA BR SCT020 OVC030CB
RMK NXT FCST BY 270000Z=
Your time UTC time
Weather data provided by Environment Canada and NAV CANADA